createdAt,value
2023-01-11T00:00:22.905Z,3.25
2023-01-11T00:01:22.898Z,3.24
2023-01-11T00:02:22.969Z,3.24
2023-01-11T00:03:22.871Z,3.26
2023-01-11T00:04:22.887Z,3.27
2023-01-11T00:05:22.858Z,3.26
2023-01-11T00:06:22.876Z,3.23
2023-01-11T00:07:22.796Z,3.21
2023-01-11T00:08:22.805Z,3.22
2023-01-11T00:09:22.773Z,3.24
2023-01-11T00:10:22.781Z,3.26
2023-01-11T00:11:22.753Z,3.27
2023-01-11T00:12:22.732Z,3.26
2023-01-11T00:13:22.732Z,3.25
2023-01-11T00:14:22.732Z,3.27
2023-01-11T00:15:22.705Z,3.28
2023-01-11T00:16:22.728Z,3.28
2023-01-11T00:17:22.666Z,3.28
2023-01-11T00:18:22.664Z,3.28
2023-01-11T00:19:22.663Z,3.29
2023-01-11T00:20:22.630Z,3.29
2023-01-11T00:21:22.631Z,3.30
2023-01-11T00:22:22.617Z,3.31
2023-01-11T00:23:22.609Z,3.32
2023-01-11T00:24:22.599Z,3.33
2023-01-11T00:25:22.586Z,3.34
2023-01-11T00:26:22.556Z,3.33
2023-01-11T00:27:22.558Z,3.32
2023-01-11T00:28:22.532Z,3.31
2023-01-11T00:29:22.508Z,3.31
2023-01-11T00:30:22.508Z,3.31
2023-01-11T00:31:22.546Z,3.32
2023-01-11T00:32:22.525Z,3.32
2023-01-11T00:33:22.463Z,3.32
2023-01-11T00:34:22.478Z,3.31
2023-01-11T00:35:22.432Z,3.31
2023-01-11T00:36:22.412Z,3.31
2023-01-11T00:37:22.425Z,3.30
2023-01-11T00:38:22.406Z,3.28
2023-01-11T00:39:22.386Z,3.29
2023-01-11T00:40:22.363Z,3.30
2023-01-11T00:41:22.393Z,3.31
2023-01-11T00:42:22.359Z,3.32
2023-01-11T00:43:22.328Z,3.31
2023-01-11T00:44:22.330Z,3.31
2023-01-11T00:45:22.326Z,3.30
2023-01-11T00:46:22.340Z,3.30
2023-01-11T00:47:22.290Z,3.31
2023-01-11T00:48:22.279Z,3.33
2023-01-11T00:49:22.268Z,3.35
2023-01-11T00:50:22.239Z,3.35
2023-01-11T00:51:22.280Z,3.35
2023-01-11T00:52:22.216Z,3.36
2023-01-11T00:53:22.221Z,3.36
2023-01-11T00:54:22.207Z,3.36
2023-01-11T00:55:22.163Z,3.36
2023-01-11T00:56:22.188Z,3.37
2023-01-11T00:57:22.159Z,3.39
2023-01-11T00:58:22.147Z,3.42
2023-01-11T00:59:22.143Z,3.44
2023-01-11T01:00:22.210Z,3.45
2023-01-11T01:01:22.139Z,3.46
2023-01-11T01:02:22.131Z,3.47
2023-01-11T01:03:22.084Z,3.50
2023-01-11T01:04:22.102Z,3.53
2023-01-11T01:05:22.090Z,3.56
2023-01-11T01:06:22.067Z,3.58
2023-01-11T01:07:22.085Z,3.59
2023-01-11T01:08:22.068Z,3.59
2023-01-11T01:09:22.040Z,3.59
2023-01-11T01:10:22.036Z,3.60
2023-01-11T01:11:22.016Z,3.60
2023-01-11T01:12:22.027Z,3.60
2023-01-11T01:13:21.990Z,3.60
2023-01-11T01:14:21.962Z,3.60
2023-01-11T01:15:21.922Z,3.59
2023-01-11T01:16:21.996Z,3.58
2023-01-11T01:17:21.938Z,3.58
2023-01-11T01:18:21.986Z,3.58
2023-01-11T01:19:21.892Z,3.57
2023-01-11T01:20:21.919Z,3.57
2023-01-11T01:21:21.886Z,3.58
2023-01-11T01:22:21.925Z,3.58
2023-01-11T01:23:21.884Z,3.58
2023-01-11T01:24:21.867Z,3.57
2023-01-11T01:25:21.828Z,3.57
2023-01-11T01:26:21.782Z,3.58
2023-01-11T01:27:21.896Z,3.59
2023-01-11T01:28:21.855Z,3.62
2023-01-11T01:29:21.886Z,3.65
2023-01-11T01:30:21.789Z,3.67
2023-01-11T01:31:21.769Z,3.67
2023-01-11T01:32:21.762Z,3.66
2023-01-11T01:33:21.760Z,3.66
2023-01-11T01:34:21.673Z,3.67
2023-01-11T01:35:21.768Z,3.69
2023-01-11T01:36:21.701Z,3.70
2023-01-11T01:37:21.712Z,3.72
2023-01-11T01:38:21.743Z,3.74
2023-01-11T01:39:21.661Z,3.76
2023-01-11T01:40:21.713Z,3.76
2023-01-11T01:41:21.661Z,3.76
2023-01-11T01:42:21.637Z,3.78
2023-01-11T01:43:21.650Z,3.80
2023-01-11T01:44:21.602Z,3.79
2023-01-11T01:45:21.635Z,3.76
2023-01-11T01:46:21.618Z,3.72
2023-01-11T01:47:21.570Z,3.70
2023-01-11T01:48:21.613Z,3.68
2023-01-11T01:49:21.567Z,3.68
2023-01-11T01:50:21.520Z,3.69
2023-01-11T01:51:21.524Z,3.70
2023-01-11T01:52:21.459Z,3.72
2023-01-11T01:53:21.479Z,3.75
2023-01-11T01:54:21.448Z,3.76
2023-01-11T01:55:21.409Z,3.78
2023-01-11T01:56:21.410Z,3.80
2023-01-11T01:57:21.364Z,3.82
2023-01-11T01:58:21.354Z,3.84
2023-01-11T01:59:21.367Z,3.87
2023-01-11T02:00:21.360Z,3.88
2023-01-11T02:01:21.402Z,3.88
2023-01-11T02:02:21.411Z,3.87
2023-01-11T02:03:21.301Z,3.87
2023-01-11T02:04:21.313Z,3.88
2023-01-11T02:05:21.273Z,3.90
2023-01-11T02:06:21.360Z,3.92
2023-01-11T02:07:21.261Z,3.93
2023-01-11T02:08:21.235Z,3.94
2023-01-11T02:09:21.235Z,3.95
2023-01-11T02:10:21.270Z,3.95
2023-01-11T02:11:21.209Z,3.95
2023-01-11T02:12:21.212Z,3.97
2023-01-11T02:13:21.177Z,4.00
2023-01-11T02:14:21.162Z,4.01
2023-01-11T02:15:21.199Z,4.03
2023-01-11T02:16:21.149Z,4.04
2023-01-11T02:17:21.177Z,4.05
2023-01-11T02:18:21.109Z,4.08
2023-01-11T02:19:21.087Z,4.12
2023-01-11T02:20:21.139Z,4.16
2023-01-11T02:21:21.110Z,4.18
2023-01-11T02:22:21.128Z,4.18
2023-01-11T02:23:21.043Z,4.19
2023-01-11T02:24:21.040Z,4.20
2023-01-11T02:25:21.008Z,4.22
2023-01-11T02:26:21.018Z,4.23
2023-01-11T02:27:20.985Z,4.24
2023-01-11T02:28:20.962Z,4.26
2023-01-11T02:29:20.984Z,4.27
2023-01-11T02:30:20.957Z,4.27
2023-01-11T02:31:21.048Z,4.28
2023-01-11T02:32:20.946Z,4.30
2023-01-11T02:33:20.897Z,4.30
2023-01-11T02:34:20.913Z,4.32
2023-01-11T02:35:20.894Z,4.34
2023-01-11T02:36:20.884Z,4.35
2023-01-11T02:37:20.876Z,4.35
2023-01-11T02:38:20.857Z,4.36
2023-01-11T02:39:20.829Z,4.36
2023-01-11T02:40:20.841Z,4.36
2023-01-11T02:41:20.813Z,4.36
2023-01-11T02:42:20.812Z,4.36
2023-01-11T02:43:20.830Z,4.36
2023-01-11T02:44:20.802Z,4.36
2023-01-11T02:45:20.762Z,4.35
2023-01-11T02:46:20.841Z,4.35
2023-01-11T02:47:20.733Z,4.37
2023-01-11T02:48:20.736Z,4.40
2023-01-11T02:49:20.785Z,4.41
2023-01-11T02:50:20.716Z,4.40
2023-01-11T02:51:20.736Z,4.40
2023-01-11T02:52:20.759Z,4.41
2023-01-11T02:53:20.654Z,4.42
2023-01-11T02:54:20.737Z,4.42
2023-01-11T02:55:20.611Z,4.42
2023-01-11T02:56:20.602Z,4.40
2023-01-11T02:57:20.597Z,4.38
2023-01-11T02:58:20.627Z,4.36
2023-01-11T02:59:20.570Z,4.36
2023-01-11T03:00:20.562Z,4.36
2023-01-11T03:01:20.550Z,4.36
2023-01-11T03:02:20.554Z,4.36
2023-01-11T03:03:20.567Z,4.35
2023-01-11T03:04:20.539Z,4.34
2023-01-11T03:05:20.481Z,4.31
2023-01-11T03:06:20.506Z,4.30
2023-01-11T03:07:20.461Z,4.30
2023-01-11T03:08:20.480Z,4.30
2023-01-11T03:09:20.500Z,4.31
2023-01-11T03:10:20.468Z,4.31
2023-01-11T03:11:20.432Z,4.31
2023-01-11T03:12:20.404Z,4.30
2023-01-11T03:13:20.400Z,4.29
2023-01-11T03:14:20.380Z,4.29
2023-01-11T03:15:20.457Z,4.31
2023-01-11T03:16:20.400Z,4.34
2023-01-11T03:17:20.346Z,4.36
2023-01-11T03:18:20.341Z,4.37
2023-01-11T03:19:20.311Z,4.39
2023-01-11T03:20:20.319Z,4.40
2023-01-11T03:21:20.306Z,4.39
2023-01-11T03:22:20.314Z,4.37
2023-01-11T03:23:20.264Z,4.36
2023-01-11T03:24:20.230Z,4.36
2023-01-11T03:25:20.215Z,4.37
2023-01-11T03:26:20.233Z,4.38
2023-01-11T03:27:20.226Z,4.39
2023-01-11T03:28:20.209Z,4.40
2023-01-11T03:29:20.197Z,4.40
2023-01-11T03:30:20.155Z,4.40
2023-01-11T03:31:20.168Z,4.40
2023-01-11T03:32:20.161Z,4.40
2023-01-11T03:33:20.135Z,4.40
2023-01-11T03:34:20.147Z,4.39
2023-01-11T03:35:20.114Z,4.39
2023-01-11T03:36:20.133Z,4.41
2023-01-11T03:37:20.083Z,4.43
2023-01-11T03:38:20.117Z,4.44
2023-01-11T03:39:20.069Z,4.44
2023-01-11T03:40:20.032Z,4.44
2023-01-11T03:41:20.033Z,4.44
2023-01-11T03:42:20.019Z,4.44
2023-01-11T03:43:20.025Z,4.44
2023-01-11T03:44:20.012Z,4.43
2023-01-11T03:45:19.984Z,4.43
2023-01-11T03:46:20.026Z,4.42
2023-01-11T03:47:19.984Z,4.43
2023-01-11T03:48:19.950Z,4.46
2023-01-11T03:49:19.928Z,4.48
2023-01-11T03:50:19.929Z,4.48
2023-01-11T03:51:19.882Z,4.47
2023-01-11T03:52:19.884Z,4.45
2023-01-11T03:53:19.905Z,4.44
2023-01-11T03:54:19.859Z,4.42
2023-01-11T03:55:19.828Z,4.40
2023-01-11T03:56:19.822Z,4.40
2023-01-11T03:57:19.795Z,4.40
2023-01-11T03:58:19.834Z,4.40
2023-01-11T03:59:19.853Z,4.40
2023-01-11T04:00:19.806Z,4.39
2023-01-11T04:01:19.767Z,4.39
2023-01-11T04:02:19.778Z,4.39
2023-01-11T04:03:19.779Z,4.39
2023-01-11T04:04:19.730Z,4.40
2023-01-11T04:05:19.721Z,4.40
2023-01-11T04:06:19.755Z,4.39
2023-01-11T04:07:19.680Z,4.38
2023-01-11T04:08:19.676Z,4.39
2023-01-11T04:09:19.717Z,4.38
2023-01-11T04:10:19.680Z,4.38
2023-01-11T04:11:19.657Z,4.38
2023-01-11T04:12:19.635Z,4.39
2023-01-11T04:13:19.611Z,4.40
2023-01-11T04:14:19.595Z,4.41
2023-01-11T04:15:19.606Z,4.42
2023-01-11T04:16:19.647Z,4.43
2023-01-11T04:17:19.557Z,4.45
2023-01-11T04:18:19.548Z,4.46
2023-01-11T04:19:19.513Z,4.46
2023-01-11T04:20:19.541Z,4.46
2023-01-11T04:21:19.497Z,4.45
2023-01-11T04:22:19.498Z,4.46
2023-01-11T04:23:19.532Z,4.46
2023-01-11T04:24:19.517Z,4.46
2023-01-11T04:25:19.432Z,4.45
2023-01-11T04:26:19.439Z,4.45
2023-01-11T04:27:19.447Z,4.44
2023-01-11T04:28:19.444Z,4.45
2023-01-11T04:29:19.409Z,4.47
2023-01-11T04:30:19.390Z,4.47
2023-01-11T04:31:19.379Z,4.48
2023-01-11T04:32:19.366Z,4.48
2023-01-11T04:33:19.357Z,4.47
2023-01-11T04:34:19.331Z,4.47
2023-01-11T04:35:19.311Z,4.47
2023-01-11T04:36:19.292Z,4.47
2023-01-11T04:37:19.305Z,4.47
2023-01-11T04:38:19.291Z,4.46
2023-01-11T04:39:19.244Z,4.45
2023-01-11T04:40:19.267Z,4.45
2023-01-11T04:41:19.266Z,4.46
2023-01-11T04:42:19.361Z,4.47
2023-01-11T04:43:19.213Z,4.48
2023-01-11T04:44:19.230Z,4.49
2023-01-11T04:45:19.209Z,4.49
2023-01-11T04:46:19.167Z,4.49
2023-01-11T04:47:19.140Z,4.49
2023-01-11T04:48:19.182Z,4.49
2023-01-11T04:49:19.147Z,4.50
2023-01-11T04:50:19.239Z,4.51
2023-01-11T04:51:19.155Z,4.51
2023-01-11T04:52:19.108Z,4.51
2023-01-11T04:53:19.121Z,4.51
2023-01-11T04:54:19.067Z,4.50
2023-01-11T04:55:19.051Z,4.49
2023-01-11T04:56:19.070Z,4.49
2023-01-11T04:57:19.054Z,4.49
2023-01-11T04:58:19.026Z,4.47
2023-01-11T04:59:19.010Z,4.46
2023-01-11T05:00:19.024Z,4.46
2023-01-11T05:01:19.144Z,4.47
2023-01-11T05:02:18.975Z,4.47
2023-01-11T05:03:19.002Z,4.46
2023-01-11T05:04:19.002Z,4.44
2023-01-11T05:05:18.925Z,4.43
2023-01-11T05:06:18.917Z,4.42
2023-01-11T05:07:18.899Z,4.42
2023-01-11T05:08:18.935Z,4.42
2023-01-11T05:09:18.912Z,4.42
2023-01-11T05:10:20.864Z,4.42
2023-01-11T05:11:18.863Z,4.43
2023-01-11T05:12:18.845Z,4.43
2023-01-11T05:13:18.840Z,4.44
2023-01-11T05:14:18.799Z,4.45
2023-01-11T05:15:18.805Z,4.47
2023-01-11T05:16:18.826Z,4.47
2023-01-11T05:17:18.801Z,4.48
2023-01-11T05:18:18.782Z,4.49
2023-01-11T05:19:18.796Z,4.50
2023-01-11T05:20:18.785Z,4.51
2023-01-11T05:21:18.741Z,4.51
2023-01-11T05:22:18.785Z,4.51
2023-01-11T05:23:18.695Z,4.51
2023-01-11T05:24:18.687Z,4.52
2023-01-11T05:25:18.663Z,4.53
2023-01-11T05:26:18.689Z,4.54
2023-01-11T05:27:18.622Z,4.55
2023-01-11T05:28:18.669Z,4.56
2023-01-11T05:29:18.609Z,4.57
2023-01-11T05:30:18.593Z,4.59
2023-01-11T05:31:18.639Z,4.60
2023-01-11T05:32:18.571Z,4.60
2023-01-11T05:33:18.541Z,4.60
2023-01-11T05:34:18.561Z,4.60
2023-01-11T05:35:18.544Z,4.60
2023-01-11T05:36:18.549Z,4.60
2023-01-11T05:37:18.517Z,4.59
2023-01-11T05:38:18.513Z,4.58
2023-01-11T05:39:18.495Z,4.59
2023-01-11T05:40:18.485Z,4.59
2023-01-11T05:41:18.475Z,4.60
2023-01-11T05:42:18.463Z,4.60
2023-01-11T05:43:18.444Z,4.60
2023-01-11T05:44:18.454Z,4.61
2023-01-11T05:45:18.427Z,4.61
2023-01-11T05:46:18.421Z,4.60
2023-01-11T05:47:18.395Z,4.59
2023-01-11T05:48:18.358Z,4.60
2023-01-11T05:49:18.380Z,4.62
2023-01-11T05:50:18.330Z,4.63
2023-01-11T05:51:18.311Z,4.64
2023-01-11T05:52:18.348Z,4.63
2023-01-11T05:53:18.323Z,4.62
2023-01-11T05:54:18.294Z,4.62
2023-01-11T05:55:18.281Z,4.62
2023-01-11T05:56:18.297Z,4.62
2023-01-11T05:57:18.238Z,4.62
2023-01-11T05:58:18.298Z,4.62
2023-01-11T05:59:18.229Z,4.62
2023-01-11T06:00:18.234Z,4.62
2023-01-11T06:01:18.207Z,4.61
2023-01-11T06:02:18.344Z,4.61
2023-01-11T06:03:18.248Z,4.61
2023-01-11T06:04:18.165Z,4.62
2023-01-11T06:05:18.147Z,4.63
2023-01-11T06:06:18.109Z,4.64
2023-01-11T06:07:18.159Z,4.66
2023-01-11T06:08:18.117Z,4.67
2023-01-11T06:09:18.139Z,4.69
2023-01-11T06:10:18.061Z,4.70
2023-01-11T06:11:18.083Z,4.72
2023-01-11T06:12:18.069Z,4.73
2023-01-11T06:13:18.044Z,4.74
2023-01-11T06:14:18.036Z,4.74
2023-01-11T06:15:17.999Z,4.74
2023-01-11T06:16:18.103Z,4.76
2023-01-11T06:17:18.003Z,4.77
2023-01-11T06:18:17.993Z,4.77
2023-01-11T06:19:17.948Z,4.79
2023-01-11T06:20:17.940Z,4.82
2023-01-11T06:21:17.940Z,4.83
2023-01-11T06:22:17.946Z,4.83
2023-01-11T06:23:17.960Z,4.82
2023-01-11T06:24:17.914Z,4.82
2023-01-11T06:25:17.867Z,4.82
2023-01-11T06:26:17.881Z,4.81
2023-01-11T06:27:17.863Z,4.80
2023-01-11T06:28:17.860Z,4.80
2023-01-11T06:29:17.855Z,4.80
2023-01-11T06:30:17.859Z,4.81
2023-01-11T06:31:18.428Z,4.82
2023-01-11T06:32:17.827Z,4.82
2023-01-11T06:33:17.819Z,4.83
2023-01-11T06:34:17.757Z,4.84
2023-01-11T06:35:17.750Z,4.86
2023-01-11T06:36:17.774Z,4.87
2023-01-11T06:37:17.737Z,4.88
2023-01-11T06:38:17.731Z,4.89
2023-01-11T06:39:17.739Z,4.90
2023-01-11T06:40:17.694Z,4.89
2023-01-11T06:41:17.674Z,4.88
2023-01-11T06:42:17.681Z,4.88
2023-01-11T06:43:17.659Z,4.89
2023-01-11T06:44:17.642Z,4.89
2023-01-11T06:45:17.667Z,4.89
2023-01-11T06:46:17.723Z,4.89
2023-01-11T06:47:17.621Z,4.89
2023-01-11T06:48:17.575Z,4.89
2023-01-11T06:49:17.577Z,4.88
2023-01-11T06:50:17.599Z,4.89
2023-01-11T06:51:17.592Z,4.88
2023-01-11T06:52:17.575Z,4.87
2023-01-11T06:53:17.544Z,4.86
2023-01-11T06:54:17.530Z,4.85
2023-01-11T06:55:17.504Z,4.84
2023-01-11T06:56:17.527Z,4.84
2023-01-11T06:57:17.443Z,4.84
2023-01-11T06:58:17.458Z,4.84
2023-01-11T06:59:17.474Z,4.85
2023-01-11T07:00:17.440Z,4.85
2023-01-11T07:01:17.483Z,4.85
2023-01-11T07:02:17.402Z,4.86
2023-01-11T07:03:17.387Z,4.87
2023-01-11T07:04:17.542Z,4.87
2023-01-11T07:05:19.248Z,4.89
2023-01-11T07:06:17.365Z,4.91
2023-01-11T07:07:17.326Z,4.92
2023-01-11T07:08:17.329Z,4.92
2023-01-11T07:09:17.303Z,4.91
2023-01-11T07:10:17.299Z,4.90
2023-01-11T07:11:17.318Z,4.89
2023-01-11T07:12:17.313Z,4.90
2023-01-11T07:13:17.320Z,4.90
2023-01-11T07:14:17.310Z,4.91
2023-01-11T07:15:17.245Z,4.91
2023-01-11T07:16:17.299Z,4.91
2023-01-11T07:17:17.207Z,4.91
2023-01-11T07:18:17.207Z,4.91
2023-01-11T07:19:17.173Z,4.92
2023-01-11T07:20:17.175Z,4.91
2023-01-11T07:21:17.171Z,4.91
2023-01-11T07:22:17.141Z,4.92
2023-01-11T07:23:17.159Z,4.93
2023-01-11T07:24:17.125Z,4.94
2023-01-11T07:25:17.148Z,4.95
2023-01-11T07:26:17.246Z,4.95
2023-01-11T07:27:17.102Z,4.94
2023-01-11T07:28:17.087Z,4.93
2023-01-11T07:29:17.048Z,4.92
2023-01-11T07:30:17.032Z,4.90
2023-01-11T07:31:17.064Z,4.89
2023-01-11T07:32:17.006Z,4.89
2023-01-11T07:33:16.985Z,4.89
2023-01-11T07:34:16.972Z,4.90
2023-01-11T07:35:16.968Z,4.91
2023-01-11T07:36:16.964Z,4.91
2023-01-11T07:37:29.075Z,4.91
2023-01-11T07:38:16.950Z,4.90
2023-01-11T07:39:16.922Z,4.89
2023-01-11T07:40:16.940Z,4.88
2023-01-11T07:41:16.884Z,4.87
2023-01-11T07:42:16.896Z,4.85
2023-01-11T07:43:16.896Z,4.84
2023-01-11T07:44:16.869Z,4.85
2023-01-11T07:45:16.912Z,4.86
2023-01-11T07:46:16.884Z,4.88
2023-01-11T07:47:16.854Z,4.90
2023-01-11T07:48:16.785Z,4.91
2023-01-11T07:49:16.799Z,4.92
2023-01-11T07:50:16.768Z,4.95
2023-01-11T07:51:16.773Z,4.98
2023-01-11T07:52:16.776Z,5.00
2023-01-11T07:53:16.773Z,5.00
2023-01-11T07:54:16.708Z,5.00
2023-01-11T07:55:16.734Z,5.00
2023-01-11T07:56:16.683Z,4.99
2023-01-11T07:57:16.691Z,4.99
2023-01-11T07:58:16.679Z,4.99
2023-01-11T07:59:16.659Z,4.99
2023-01-11T08:00:16.637Z,4.98
2023-01-11T08:01:16.645Z,4.98
2023-01-11T08:02:16.661Z,4.97
2023-01-11T08:03:16.784Z,4.97
2023-01-11T08:04:16.595Z,4.98
2023-01-11T08:05:16.574Z,5.01
2023-01-11T08:06:16.564Z,5.03
2023-01-11T08:07:16.600Z,5.06
2023-01-11T08:08:16.526Z,5.09
2023-01-11T08:09:16.539Z,5.11
2023-01-11T08:10:16.559Z,5.15
2023-01-11T08:11:16.523Z,5.18
2023-01-11T08:12:16.502Z,5.20
2023-01-11T08:13:16.504Z,5.22
2023-01-11T08:14:16.492Z,5.24
2023-01-11T08:15:16.448Z,5.25
2023-01-11T08:16:16.532Z,5.26
2023-01-11T08:17:16.413Z,5.27
2023-01-11T08:18:16.389Z,5.29
2023-01-11T08:19:16.386Z,5.31
2023-01-11T08:20:16.363Z,5.33
2023-01-11T08:21:16.360Z,5.34
2023-01-11T08:22:16.339Z,5.35
2023-01-11T08:23:16.359Z,5.37
2023-01-11T08:24:16.358Z,5.39
2023-01-11T08:25:16.316Z,5.41
2023-01-11T08:26:16.292Z,5.43
2023-01-11T08:27:16.302Z,5.44
2023-01-11T08:28:16.317Z,5.46
2023-01-11T08:29:16.288Z,5.47
2023-01-11T08:30:16.237Z,5.48
2023-01-11T08:31:16.279Z,5.49
2023-01-11T08:32:16.245Z,5.50
2023-01-11T08:33:16.225Z,5.51
2023-01-11T08:34:16.211Z,5.53
2023-01-11T08:35:16.202Z,5.55
2023-01-11T08:36:16.232Z,5.57
2023-01-11T08:37:16.153Z,5.60
2023-01-11T08:38:16.147Z,5.62
2023-01-11T08:39:16.147Z,5.64
2023-01-11T08:40:16.123Z,5.65
2023-01-11T08:41:16.113Z,5.66
2023-01-11T08:42:16.072Z,5.67
2023-01-11T08:43:16.110Z,5.68
2023-01-11T08:44:22.237Z,5.69
2023-01-11T08:45:16.084Z,5.70
2023-01-11T08:46:16.112Z,5.71
2023-01-11T08:47:16.083Z,5.72
2023-01-11T08:48:16.007Z,5.73
2023-01-11T08:49:15.997Z,5.73
2023-01-11T08:50:15.985Z,5.74
2023-01-11T08:51:16.010Z,5.75
2023-01-11T08:52:16.017Z,5.76
2023-01-11T08:53:16.002Z,5.77
2023-01-11T08:54:15.977Z,5.78
2023-01-11T08:55:15.938Z,5.79
2023-01-11T08:56:15.925Z,5.80
2023-01-11T08:57:15.929Z,5.81
2023-01-11T08:58:15.951Z,5.83
2023-01-11T08:59:15.871Z,5.85
2023-01-11T09:00:15.905Z,5.86
2023-01-11T09:01:15.891Z,5.87
2023-01-11T09:02:15.869Z,5.87
2023-01-11T09:03:15.842Z,5.87
2023-01-11T09:04:24.860Z,5.88
2023-01-11T09:05:18.197Z,5.89
2023-01-11T09:06:15.770Z,5.91
2023-01-11T09:07:15.797Z,5.93
2023-01-11T09:08:15.796Z,5.94
2023-01-11T09:09:15.768Z,5.96
2023-01-11T09:10:15.824Z,5.97
2023-01-11T09:11:15.734Z,5.99
2023-01-11T09:12:15.705Z,6.01
2023-01-11T09:13:15.722Z,6.03
2023-01-11T09:14:15.684Z,6.06
2023-01-11T09:15:15.696Z,6.08
2023-01-11T09:16:15.690Z,6.11
2023-01-11T09:17:15.643Z,6.14
2023-01-11T09:18:15.614Z,6.16
2023-01-11T09:19:15.627Z,6.18
2023-01-11T09:20:15.629Z,6.21
2023-01-11T09:21:15.595Z,6.23
2023-01-11T09:22:15.649Z,6.26
2023-01-11T09:23:15.584Z,6.29
2023-01-11T09:24:15.568Z,6.30
2023-01-11T09:25:15.598Z,6.31
2023-01-11T09:26:15.541Z,6.33
2023-01-11T09:27:15.561Z,6.34
2023-01-11T09:28:15.511Z,6.36
2023-01-11T09:29:15.530Z,6.38
2023-01-11T09:30:15.500Z,6.40
2023-01-11T09:31:15.516Z,6.41
2023-01-11T09:32:15.446Z,6.43
2023-01-11T09:33:15.439Z,6.45
2023-01-11T09:34:15.410Z,6.47
2023-01-11T09:35:15.455Z,6.48
2023-01-11T09:36:15.399Z,6.50
2023-01-11T09:37:15.381Z,6.51
2023-01-11T09:38:15.393Z,6.53
2023-01-11T09:39:15.358Z,6.55
2023-01-11T09:40:15.363Z,6.57
2023-01-11T09:41:15.316Z,6.59
2023-01-11T09:42:15.376Z,6.61
2023-01-11T09:43:15.303Z,6.62
2023-01-11T09:44:15.287Z,6.63
2023-01-11T09:45:15.261Z,6.64
2023-01-11T09:46:15.320Z,6.64
2023-01-11T09:47:15.249Z,6.65
2023-01-11T09:48:15.235Z,6.65
2023-01-11T09:49:15.231Z,6.65
2023-01-11T09:50:15.242Z,6.66
2023-01-11T09:51:15.216Z,6.66
2023-01-11T09:52:15.221Z,6.66
2023-01-11T09:53:15.180Z,6.67
2023-01-11T09:54:15.160Z,6.68
2023-01-11T09:55:15.159Z,6.68
2023-01-11T09:56:15.115Z,6.69
2023-01-11T09:57:15.118Z,6.69
2023-01-11T09:58:15.087Z,6.69
2023-01-11T09:59:15.110Z,6.70
2023-01-11T10:00:15.108Z,6.70
2023-01-11T10:01:15.107Z,6.71
2023-01-11T10:02:16.011Z,6.72
2023-01-11T10:03:15.063Z,6.73
2023-01-11T10:04:15.000Z,6.73
2023-01-11T10:05:15.269Z,6.74
2023-01-11T10:06:15.047Z,6.75
2023-01-11T10:07:14.990Z,6.76
2023-01-11T10:18:23.632Z,6.78
2023-01-11T10:18:58.891Z,6.80
2023-01-11T10:19:35.032Z,6.81
2023-01-11T10:19:49.854Z,6.83
2023-01-11T10:20:49.766Z,6.84
2023-01-11T10:21:49.793Z,6.84
2023-01-11T10:22:49.763Z,6.83
2023-01-11T10:23:49.811Z,6.80
2023-01-11T10:24:49.742Z,6.75
2023-01-11T10:25:49.747Z,6.70
2023-01-11T10:26:49.803Z,6.63
2023-01-11T10:27:49.663Z,6.58
2023-01-11T10:28:49.661Z,6.54
2023-01-11T10:29:49.758Z,6.51
2023-01-11T10:30:49.689Z,6.48
2023-01-11T10:31:49.726Z,6.45
2023-01-11T10:32:49.634Z,6.42
2023-01-11T10:33:49.695Z,6.40
2023-01-11T10:34:49.609Z,6.38
2023-01-11T10:35:49.594Z,6.36
2023-01-11T10:36:49.531Z,6.35
2023-01-11T10:37:49.555Z,6.33
2023-01-11T10:38:49.522Z,6.30
2023-01-11T10:39:49.595Z,6.28
2023-01-11T10:40:49.529Z,6.24
2023-01-11T10:41:49.526Z,6.22
2023-01-11T10:42:49.478Z,6.19
2023-01-11T10:43:49.467Z,6.17
2023-01-11T10:44:49.442Z,6.15
2023-01-11T10:45:49.486Z,6.13
2023-01-11T10:46:49.411Z,6.11
2023-01-11T10:47:49.436Z,6.09
2023-01-11T10:48:49.394Z,6.08
2023-01-11T10:49:49.382Z,6.08
2023-01-11T10:50:49.380Z,6.08
2023-01-11T10:51:49.444Z,6.07
2023-01-11T10:52:49.339Z,6.07
2023-01-11T10:53:49.340Z,6.06
2023-01-11T10:54:50.242Z,6.05
2023-01-11T10:55:49.295Z,6.04
2023-01-11T10:57:03.183Z,6.04
2023-01-11T10:58:01.275Z,6.04
2023-01-11T10:58:49.283Z,6.05
2023-01-11T10:59:49.285Z,6.05
2023-01-11T11:00:49.301Z,6.05
2023-01-11T11:01:49.322Z,6.05
2023-01-11T11:02:49.219Z,6.05
2023-01-11T11:03:49.197Z,6.05
2023-01-11T11:04:49.189Z,6.05
2023-01-11T11:05:49.178Z,6.06
2023-01-11T11:06:49.156Z,6.05
2023-01-11T11:07:49.137Z,6.05
2023-01-11T11:08:49.152Z,6.05
2023-01-11T11:09:49.128Z,6.05
2023-01-11T11:10:49.142Z,6.04
2023-01-11T11:11:49.102Z,6.04
2023-01-11T11:12:49.103Z,6.04
2023-01-11T11:13:49.090Z,6.04
2023-01-11T11:14:49.099Z,6.04
2023-01-11T11:15:49.105Z,6.03
2023-01-11T11:16:49.051Z,6.03
2023-01-11T11:17:49.035Z,6.02
2023-01-11T11:18:49.028Z,6.01
2023-01-11T11:19:49.009Z,6.00
2023-01-11T11:20:48.972Z,5.99
2023-01-11T11:21:48.986Z,5.99
2023-01-11T11:22:48.952Z,5.99
2023-01-11T11:23:48.982Z,5.99
2023-01-11T11:24:48.966Z,5.99
2023-01-11T11:25:48.953Z,6.00
2023-01-11T11:26:48.966Z,6.00
2023-01-11T11:27:48.916Z,6.00
2023-01-11T11:28:48.876Z,6.00
2023-01-11T11:29:48.867Z,6.00
2023-01-11T11:30:48.869Z,6.00
2023-01-11T11:31:48.929Z,6.00
2023-01-11T11:32:48.801Z,5.99
2023-01-11T11:33:48.809Z,5.99
2023-01-11T11:34:48.796Z,6.00
2023-01-11T11:35:48.776Z,6.02
2023-01-11T11:36:48.786Z,6.02
2023-01-11T11:37:48.768Z,6.02
2023-01-11T11:38:48.759Z,6.03
2023-01-11T11:39:48.734Z,6.03
2023-01-11T11:40:48.753Z,6.03
2023-01-11T11:41:48.727Z,6.04
2023-01-11T11:42:48.724Z,6.04
2023-01-11T11:43:48.676Z,6.04
2023-01-11T11:44:48.674Z,6.04
2023-01-11T11:45:48.744Z,6.05
2023-01-11T11:46:48.659Z,6.06
2023-01-11T11:47:48.829Z,6.07
2023-01-11T11:48:48.666Z,6.08
2023-01-11T11:49:48.639Z,6.09
2023-01-11T11:50:48.673Z,6.10
2023-01-11T11:51:48.605Z,6.11
2023-01-11T11:52:48.571Z,6.12
2023-01-11T11:53:48.525Z,6.11
2023-01-11T11:54:48.571Z,6.11
2023-01-11T11:55:48.527Z,6.12
2023-01-11T11:56:48.488Z,6.13
2023-01-11T11:57:48.498Z,6.14
2023-01-11T11:58:48.491Z,6.14
2023-01-11T11:59:48.496Z,6.15
2023-01-11T12:00:48.455Z,6.15
2023-01-11T12:01:48.565Z,6.17
2023-01-11T12:02:48.427Z,6.18
2023-01-11T12:03:48.399Z,6.19
2023-01-11T12:04:48.477Z,6.19
2023-01-11T12:05:48.423Z,6.20
2023-01-11T12:06:49.381Z,6.20
2023-01-11T12:07:54.636Z,6.20
2023-01-11T12:08:48.342Z,6.21
2023-01-11T12:09:48.345Z,6.22
2023-01-11T12:10:48.335Z,6.22
2023-01-11T12:11:48.341Z,6.23
2023-01-11T12:12:48.322Z,6.23
2023-01-11T12:13:48.270Z,6.24
2023-01-11T12:14:48.270Z,6.24
2023-01-11T12:15:48.244Z,6.25
2023-01-11T12:16:48.321Z,6.26
2023-01-11T12:17:48.260Z,6.26
2023-01-11T12:18:48.225Z,6.27
2023-01-11T12:19:48.240Z,6.27
2023-01-11T12:20:48.171Z,6.28
2023-01-11T12:21:48.206Z,6.30
2023-01-11T12:22:48.147Z,6.30
2023-01-11T12:23:48.139Z,6.31
2023-01-11T12:24:48.136Z,6.32
2023-01-11T12:25:48.128Z,6.32
2023-01-11T12:26:48.274Z,6.33
2023-01-11T12:27:48.121Z,6.34
2023-01-11T12:28:48.105Z,6.35
2023-01-11T12:29:48.091Z,6.35
2023-01-11T12:30:48.090Z,6.35
2023-01-11T12:31:48.066Z,6.36
2023-01-11T12:32:48.051Z,6.36
2023-01-11T12:33:48.054Z,6.37
2023-01-11T12:34:48.002Z,6.37
2023-01-11T12:35:48.021Z,6.37
2023-01-11T12:36:48.016Z,6.37
2023-01-11T12:37:47.987Z,6.38
2023-01-11T12:38:47.949Z,6.38
2023-01-11T12:39:47.934Z,6.38
2023-01-11T12:40:47.945Z,6.39
2023-01-11T12:41:47.986Z,6.39
2023-01-11T12:42:47.892Z,6.40
2023-01-11T12:43:47.880Z,6.40
2023-01-11T12:44:47.860Z,6.41
2023-01-11T12:45:47.889Z,6.42
2023-01-11T12:46:47.833Z,6.43
2023-01-11T12:47:47.829Z,6.44
2023-01-11T12:48:47.842Z,6.46
2023-01-11T12:49:47.850Z,6.47
2023-01-11T12:50:47.792Z,6.48
2023-01-11T12:51:47.767Z,6.49
2023-01-11T12:52:47.753Z,6.50
2023-01-11T12:53:47.776Z,6.52
2023-01-11T12:54:47.733Z,6.53
2023-01-11T12:55:47.750Z,6.53
2023-01-11T12:56:47.721Z,6.54
2023-01-11T12:57:47.705Z,6.54
2023-01-11T12:58:47.699Z,6.55
2023-01-11T12:59:47.669Z,6.55
2023-01-11T13:00:47.662Z,6.56
2023-01-11T13:01:47.673Z,6.56
2023-01-11T13:02:47.747Z,6.57
2023-01-11T13:03:47.654Z,6.57
2023-01-11T13:04:47.622Z,6.57
2023-01-11T13:05:47.609Z,6.58
2023-01-11T13:06:47.591Z,6.58
2023-01-11T13:07:47.577Z,6.58
2023-01-11T13:08:47.538Z,6.58
2023-01-11T13:09:47.543Z,6.58
2023-01-11T13:10:47.564Z,6.59
2023-01-11T13:11:47.507Z,6.59
2023-01-11T13:12:47.519Z,6.59
2023-01-11T13:13:47.501Z,6.60
2023-01-11T13:14:47.474Z,6.60
2023-01-11T13:15:47.459Z,6.60
2023-01-11T13:16:47.494Z,6.60
2023-01-11T13:17:47.421Z,6.60
2023-01-11T13:18:47.420Z,6.60
2023-01-11T13:19:47.408Z,6.60
2023-01-11T13:20:59.849Z,6.60
2023-01-11T13:21:47.392Z,6.60
2023-01-11T13:22:47.385Z,6.60
2023-01-11T13:23:47.340Z,6.60
2023-01-11T13:24:47.361Z,6.60
2023-01-11T13:25:47.334Z,6.60
2023-01-11T13:26:49.111Z,6.60